Observations
| Time | Sensor | AQI | SAQ | Temp °C | Hum % | Pres Pa | CO μg/m³ | H₂S μg/m³ | NO μg/m³ | NO₂ μg/m³ | O₃ μg/m³ | SO₂ μg/m³ | CO₂e PPM | VOC PPM | PM1 μg/m³ | PM2.5 μg/m³ | PM4 μg/m³ | PM10 μg/m³ | TPS µm |
|---|---|---|---|---|---|---|---|---|---|---|---|---|---|---|---|---|---|---|---|
| Wednesday 12 August 2026 | |||||||||||||||||||
| 16:08 | Trim Patrick St | 3 | 40 | 28 | 69,895 | 0 | 0 | 0 | 11.72 | 111.56 | 27.42 | 4.57 | 11.08 | 12.18 | |||||
| 16:07 | Trim Market St | 3 | 41.9 | 24 | 67,282 | 0 | 0 | 0 | 14.06 | 83.92 | 3.02 | 2.14 | 5.21 | 5.73 | |||||
| 16:07 | Trim Patrick St | 3 | 40 | 27 | 69,925 | 0 | 0 | 0 | 13.32 | 112.9 | 26.87 | 3.71 | 11.91 | 13.1 | |||||
| 16:05 | Trim Market St | 3 | 41.8 | 25 | 67,258 | 0.03 | 0 | 0 | 13.97 | 81.75 | 3.45 | 1.43 | 4.64 | 5.11 | |||||
| 16:05 | Trim Patrick St | 3 | 40 | 28 | 69,895 | 0 | 0 | 0 | 9.06 | 81.45 | 25.64 | 4.57 | 11.06 | 12.17 | |||||
| 16:04 | Trim Market St | 3 | 41.7 | 25 | 67,258 | 0 | 0 | 0 | 14.01 | 88.97 | 3.69 | 2.14 | 5.19 | 5.71 | |||||
| 16:03 | Trim Patrick St | 3 | 39.9 | 28 | 69,887 | 0 | 0 | 0 | 11.8 | 88.78 | 25.18 | 3.71 | 9.41 | 10.36 | |||||
| 16:02 | Trim Patrick St | 3 | 39.8 | 29 | 69,879 | 0 | 0 | 0 | 13.55 | 126.36 | 24.08 | 3.71 | 10.19 | 11.21 | |||||
| 16:00 | Trim Patrick St | 3 | 39.4 | 29 | 69,850 | 0 | 0 | 0 | 13.48 | 133.1 | 25.49 | 4.57 | 10.99 | 12.09 | |||||
| 15:59 | Trim Market St | 3 | 41 | 26 | 67,102 | 0 | 0 | 0 | 14.01 | 84.27 | 2.71 | 1.43 | 4.59 | 4.85 | |||||
| 15:59 | Trim Patrick St | 3 | 39.2 | 29 | 69,830 | 0 | 0 | 0 | 13.39 | 136.24 | 25.18 | 3.71 | 10.98 | 12.07 | |||||
| 15:55 | Trim Patrick St | 3 | 38.3 | 31 | 69,812 | 0 | 0 | 0 | 13.16 | 89.72 | 22.87 | 3.71 | 10.02 | 11.02 | |||||
| 15:54 | Trim Patrick St | 3 | 38.1 | 30 | 69,793 | 0 | 0 | 0 | 13.09 | 103 | 24.91 | 4.57 | 10.93 | 12.02 | |||||
| 15:54 | Trim Market St | 3 | 39.7 | 27 | 66,988 | 0 | 0 | 0 | 26.78 | 74.66 | 0.36 | 2.14 | 5.09 | 5.6 | |||||
| 15:53 | Trim Patrick St | 3 | 37.8 | 30 | 69,797 | 0 | 0 | 0 | 13.13 | 110.87 | 22.45 | 3.71 | 10.9 | 11.99 | |||||
| 15:53 | Trim Market St | 3 | 39.5 | 27 | 66,961 | 0 | 0 | 0 | 13.74 | 72.69 | 1.39 | 1.43 | 4.54 | 4.99 | |||||
| 15:52 | Trim Patrick St | 3 | 37.5 | 30 | 69,768 | 0 | 0 | 0 | 12.93 | 108.86 | 22.78 | 3.71 | 10.06 | 11.06 | |||||
| 15:52 | Trim Market St | 3 | 39.2 | 27 | 66,965 | 0 | 0 | 0 | 14.48 | 99.29 | 1.53 | 1.43 | 4.52 | 4.97 | |||||
| 15:51 | Trim Patrick St | 3 | 37.3 | 31 | 69,744 | 0 | 2.46 | 0 | 12.97 | 85.17 | 22.09 | 3.71 | 10.82 | 11.9 | |||||
| 15:51 | Trim Market St | 3 | 39 | 27 | 66,916 | 0 | 0 | 0 | 17.57 | 87.55 | 1.2 | 1.43 | 5.06 | 5.76 | |||||